createdAt,value
2023-04-05T00:01:26.784Z,33.73
2023-04-05T00:03:58.503Z,29.93
2023-04-05T00:06:28.894Z,24.30
2023-04-05T00:08:57.464Z,29.67
2023-04-05T00:11:26.169Z,29.27
2023-04-05T00:13:55.847Z,27.37
2023-04-05T00:16:24.469Z,27.43
2023-04-05T00:18:52.857Z,27.40
2023-04-05T00:21:22.552Z,25.13
2023-04-05T00:23:51.585Z,28.97
2023-04-05T00:26:20.727Z,26.63
2023-04-05T00:28:55.849Z,31.00
2023-04-05T00:31:24.752Z,29.23
2023-04-05T00:33:53.569Z,26.27
2023-04-05T00:36:22.390Z,25.33
2023-04-05T00:38:50.879Z,25.87
2023-04-05T00:41:19.470Z,28.13
2023-04-05T00:43:48.696Z,28.23
2023-04-05T00:46:18.594Z,33.27
2023-04-05T00:48:47.468Z,26.57
2023-04-05T00:51:17.309Z,33.27
2023-04-05T00:53:46.249Z,28.80
2023-04-05T00:56:16.888Z,32.87
2023-04-05T00:58:45.294Z,29.20
2023-04-05T01:01:22.435Z,27.90
2023-04-05T01:03:54.960Z,27.10
2023-04-05T01:06:38.709Z,27.20
2023-04-05T01:09:18.924Z,29.87
2023-04-05T01:11:49.883Z,29.43
2023-04-05T01:14:18.302Z,29.57
2023-04-05T01:16:49.894Z,28.83
2023-04-05T01:19:19.196Z,32.30
2023-04-05T01:22:38.194Z,26.90
2023-04-05T01:25:38.866Z,34.77
2023-04-05T01:28:33.346Z,28.00
2023-04-05T01:31:10.029Z,32.70
2023-04-05T01:33:49.381Z,29.67
2023-04-05T01:36:32.943Z,35.50
2023-04-05T01:39:03.835Z,30.97
2023-04-05T01:41:32.921Z,35.23
2023-04-05T01:44:01.463Z,30.30
2023-04-05T01:46:31.291Z,31.00
2023-04-05T01:48:59.896Z,32.73
2023-04-05T01:51:28.945Z,31.27
2023-04-05T01:53:57.380Z,37.23
2023-04-05T01:56:25.985Z,42.23
2023-04-05T01:58:54.509Z,44.07
2023-04-05T02:01:23.050Z,41.03
2023-04-05T02:03:53.412Z,37.30
2023-04-05T02:06:21.958Z,31.20
2023-04-05T02:08:50.403Z,36.57
2023-04-05T02:11:18.800Z,32.33
2023-04-05T02:13:47.518Z,40.80
2023-04-05T02:16:17.311Z,47.03
2023-04-05T02:18:50.965Z,52.70
2023-04-05T02:21:21.859Z,46.17
2023-04-05T02:23:50.269Z,61.70
2023-04-05T02:26:19.630Z,46.53
2023-04-05T02:28:48.093Z,43.87
2023-04-05T02:31:16.619Z,47.73
2023-04-05T02:33:46.610Z,51.73
2023-04-05T02:36:14.917Z,49.17
2023-04-05T02:38:44.924Z,55.33
2023-04-05T02:41:13.472Z,54.50
2023-04-05T02:43:41.879Z,66.70
2023-04-05T02:46:10.357Z,57.00
2023-04-05T02:48:43.411Z,44.90
2023-04-05T02:51:13.991Z,55.97
2023-04-05T02:53:45.069Z,62.27
2023-04-05T02:56:16.253Z,49.43
2023-04-05T02:58:49.338Z,63.33
2023-04-05T03:01:23.952Z,48.27
2023-04-05T03:03:52.505Z,54.17
2023-04-05T03:06:20.979Z,46.23
2023-04-05T03:08:52.456Z,70.83
2023-04-05T03:11:26.156Z,60.63
2023-04-05T03:13:59.035Z,68.53
2023-04-05T03:16:36.599Z,65.53
2023-04-05T03:19:12.380Z,73.97
2023-04-05T03:21:46.769Z,85.30
2023-04-05T03:24:27.259Z,77.53
2023-04-05T03:27:02.434Z,74.00
2023-04-05T03:29:35.694Z,67.77
2023-04-05T03:32:13.929Z,74.87
2023-04-05T03:34:48.777Z,77.20
2023-04-05T03:37:18.910Z,87.47
2023-04-05T03:39:55.269Z,87.00
2023-04-05T03:42:23.784Z,112.40
2023-04-05T03:44:54.853Z,103.43
2023-04-05T03:47:23.827Z,71.07
2023-04-05T03:49:54.249Z,108.03
2023-04-05T03:52:22.650Z,102.93
2023-04-05T03:54:54.427Z,115.07
2023-04-05T03:57:29.066Z,101.90
2023-04-05T04:00:00.034Z,71.07
2023-04-05T04:02:32.020Z,97.00
2023-04-05T04:05:00.621Z,90.13
2023-04-05T04:07:31.607Z,103.70
2023-04-05T04:10:02.230Z,107.60
2023-04-05T04:12:33.724Z,107.97
2023-04-05T04:15:03.895Z,76.33
2023-04-05T04:17:51.141Z,105.40
2023-04-05T04:20:40.591Z,84.70
2023-04-05T04:23:28.865Z,102.03
2023-04-05T04:26:06.170Z,105.57
2023-04-05T04:29:03.404Z,88.73
2023-04-05T04:32:06.995Z,99.00
2023-04-05T04:35:05.467Z,82.00
2023-04-05T04:37:59.087Z,60.20
2023-04-05T04:41:08.412Z,81.57
2023-04-05T04:44:03.299Z,87.20
2023-04-05T04:46:43.000Z,74.67
2023-04-05T04:49:37.382Z,75.03
2023-04-05T04:52:06.007Z,72.67
2023-04-05T04:54:36.760Z,85.00
2023-04-05T04:57:05.371Z,80.23
2023-04-05T04:59:35.172Z,70.70
2023-04-05T05:02:06.090Z,65.80
2023-04-05T05:04:36.002Z,86.30
2023-04-05T05:07:04.552Z,65.27
2023-04-05T05:09:34.898Z,69.50
2023-04-05T05:12:03.442Z,63.03
2023-04-05T05:14:31.890Z,58.37
2023-04-05T05:17:01.737Z,57.47
2023-04-05T05:19:31.734Z,53.43
2023-04-05T05:22:00.738Z,55.10
2023-04-05T05:24:29.272Z,51.10
2023-04-05T05:26:57.773Z,58.00
2023-04-05T05:29:26.338Z,50.37
2023-04-05T05:31:56.057Z,48.23
2023-04-05T05:34:25.924Z,44.10
2023-04-05T05:36:58.487Z,44.43
2023-04-05T05:39:27.108Z,41.87
2023-04-05T05:41:55.694Z,50.97
2023-04-05T05:44:24.175Z,42.70
2023-04-05T05:46:52.939Z,36.83
2023-04-05T05:49:21.949Z,41.47
2023-04-05T05:51:53.118Z,36.57
2023-04-05T05:54:21.799Z,33.87
2023-04-05T05:56:50.336Z,30.80
2023-04-05T05:59:18.892Z,34.67
2023-04-05T06:01:47.601Z,28.10
2023-04-05T06:04:16.544Z,29.60
2023-04-05T06:06:46.780Z,27.13
2023-04-05T06:09:17.059Z,24.50
2023-04-05T06:11:55.643Z,30.30
2023-04-05T06:14:25.982Z,30.73
2023-04-05T06:16:54.511Z,23.20
2023-04-05T06:19:23.337Z,25.40
2023-04-05T06:21:52.334Z,21.87
2023-04-05T06:24:22.245Z,25.00
2023-04-05T06:26:52.679Z,22.40
2023-04-05T06:29:21.111Z,23.73
2023-04-05T06:31:49.618Z,24.73
2023-04-05T06:34:18.482Z,23.80
2023-04-05T06:36:48.158Z,21.73
2023-04-05T06:39:16.608Z,25.20
2023-04-05T06:41:46.609Z,23.17
2023-04-05T06:44:15.103Z,22.13
2023-04-05T06:46:43.551Z,23.50
2023-04-05T06:49:12.152Z,22.90
2023-04-05T06:51:40.823Z,26.93
2023-04-05T06:54:09.505Z,22.23
2023-04-05T06:56:39.220Z,27.70
2023-04-05T06:59:09.453Z,18.97
2023-04-05T07:01:38.143Z,17.17
2023-04-05T07:04:06.880Z,18.60
2023-04-05T07:06:39.264Z,19.30
2023-04-05T07:09:08.000Z,19.73
2023-04-05T07:11:36.863Z,22.90
2023-04-05T07:14:05.619Z,18.50
2023-04-05T07:16:35.625Z,22.60
2023-04-05T07:19:06.110Z,19.67
2023-04-05T07:21:34.986Z,18.07
2023-04-05T07:24:03.414Z,20.93
2023-04-05T07:26:34.997Z,19.23
2023-04-05T07:29:03.359Z,19.57
2023-04-05T07:31:32.330Z,14.67
2023-04-05T07:34:03.164Z,19.27
2023-04-05T07:36:31.877Z,16.67
2023-04-05T07:39:00.878Z,15.03
2023-04-05T07:41:32.953Z,17.73
2023-04-05T07:44:01.524Z,15.50
2023-04-05T07:46:30.248Z,17.50
2023-04-05T07:49:01.505Z,17.50
2023-04-05T07:51:29.852Z,17.00
2023-04-05T07:53:59.411Z,18.47
2023-04-05T07:56:30.428Z,16.83
2023-04-05T07:58:59.540Z,16.20
2023-04-05T08:01:28.923Z,17.23
2023-04-05T08:03:58.424Z,14.17
2023-04-05T08:06:28.525Z,13.40
2023-04-05T08:08:57.258Z,14.57
2023-04-05T08:11:26.554Z,17.47
2023-04-05T08:13:55.336Z,13.20
2023-04-05T08:16:23.993Z,13.30
2023-04-05T08:18:52.528Z,9.57
2023-04-05T08:21:23.485Z,12.33
2023-04-05T08:23:53.677Z,11.30
2023-04-05T08:26:22.151Z,11.67
2023-04-05T08:28:50.645Z,12.13
2023-04-05T08:31:19.235Z,13.37
2023-04-05T08:33:47.805Z,12.47
2023-04-05T08:36:16.496Z,11.20
2023-04-05T08:38:44.883Z,9.37
2023-04-05T08:41:22.594Z,8.97
2023-04-05T08:43:59.077Z,10.07
2023-04-05T08:46:28.853Z,14.17
2023-04-05T08:48:59.400Z,8.03
2023-04-05T08:51:28.527Z,11.00
2023-04-05T08:53:57.673Z,8.90
2023-04-05T08:56:33.880Z,10.80
2023-04-05T08:59:05.726Z,10.10
2023-04-05T09:01:39.026Z,8.63
2023-04-05T09:04:10.440Z,8.47
2023-04-05T09:06:39.464Z,9.90
2023-04-05T09:09:09.700Z,16.70
2023-04-05T09:11:41.732Z,9.53
2023-04-05T09:14:11.996Z,11.47
2023-04-05T09:16:42.470Z,8.50
2023-04-05T09:19:12.152Z,10.13
2023-04-05T09:22:01.948Z,12.07
2023-04-05T09:24:41.138Z,8.40
2023-04-05T09:27:13.252Z,7.97
2023-04-05T09:29:43.937Z,7.47
2023-04-05T09:32:14.304Z,8.97
2023-04-05T09:34:44.494Z,13.67
2023-04-05T09:37:22.491Z,11.03
2023-04-05T09:40:02.887Z,11.43
2023-04-05T09:42:45.586Z,11.00
2023-04-05T09:45:14.368Z,11.63
2023-04-05T09:47:58.223Z,11.23
2023-04-05T09:50:27.219Z,8.83
2023-04-05T09:53:09.918Z,11.50
2023-04-05T09:55:41.710Z,9.53
2023-04-05T09:58:19.996Z,10.80
2023-04-05T10:00:59.940Z,8.70
2023-04-05T10:03:31.986Z,9.00
2023-04-05T10:06:01.122Z,8.80
2023-04-05T10:08:29.768Z,9.70
2023-04-05T10:10:58.968Z,10.83
2023-04-05T10:13:29.357Z,9.40
2023-04-05T10:16:01.876Z,9.60
2023-04-05T10:18:39.795Z,10.97
2023-04-05T10:21:12.580Z,8.10
2023-04-05T10:23:48.038Z,11.70
2023-04-05T10:26:25.762Z,10.97
2023-04-05T10:29:07.495Z,11.63
2023-04-05T10:31:52.072Z,10.93
2023-04-05T10:34:41.451Z,10.73
2023-04-05T10:37:22.186Z,13.07
2023-04-05T10:39:50.872Z,10.17
2023-04-05T10:42:22.971Z,9.90
2023-04-05T10:45:00.331Z,12.67
2023-04-05T10:47:32.781Z,9.47
2023-04-05T10:50:04.866Z,11.13
2023-04-05T10:52:35.416Z,11.47
2023-04-05T10:55:05.702Z,10.40
2023-04-05T10:57:36.343Z,13.33
2023-04-05T11:00:08.984Z,10.50
2023-04-05T11:02:38.031Z,10.57
2023-04-05T11:05:07.747Z,11.80
2023-04-05T11:07:45.452Z,12.53
2023-04-05T11:10:19.038Z,11.40
2023-04-05T11:13:12.000Z,11.00
2023-04-05T11:15:42.142Z,11.10
2023-04-05T11:18:13.003Z,12.10
2023-04-05T11:20:51.541Z,13.90
2023-04-05T11:23:22.496Z,11.77
2023-04-05T11:25:57.616Z,9.37
2023-04-05T11:28:34.166Z,10.10
2023-04-05T11:31:16.739Z,11.40
2023-04-05T11:34:10.491Z,10.17
2023-04-05T11:36:42.136Z,12.67
2023-04-05T11:39:27.346Z,10.63
2023-04-05T11:42:02.120Z,10.33
2023-04-05T11:44:40.335Z,10.40
2023-04-05T11:47:11.473Z,12.13
2023-04-05T11:49:40.580Z,10.33
2023-04-05T11:52:15.107Z,10.70
2023-04-05T11:54:47.232Z,11.50
2023-04-05T11:57:19.694Z,10.70
2023-04-05T11:59:51.552Z,14.50
2023-04-05T12:02:22.618Z,10.50
2023-04-05T12:04:57.653Z,11.77
2023-04-05T12:07:29.546Z,11.43
2023-04-05T12:10:09.995Z,9.00
2023-04-05T12:12:41.083Z,13.37
2023-04-05T12:15:13.397Z,11.17
2023-04-05T12:17:51.306Z,13.47
2023-04-05T12:20:23.916Z,13.80
2023-04-05T12:22:57.746Z,10.13
2023-04-05T12:25:27.401Z,13.20
2023-04-05T12:27:55.867Z,11.00
2023-04-05T12:30:25.425Z,13.40
2023-04-05T12:32:57.724Z,10.80
2023-04-05T12:35:34.898Z,10.90
2023-04-05T12:38:05.673Z,11.33
2023-04-05T12:40:36.128Z,14.63
2023-04-05T12:43:07.176Z,12.80
2023-04-05T12:45:41.756Z,11.23
2023-04-05T12:48:14.151Z,12.23
2023-04-05T12:50:46.821Z,17.10
2023-04-05T12:53:20.670Z,14.40
2023-04-05T12:55:54.588Z,15.20
2023-04-05T12:58:28.771Z,11.03
2023-04-05T13:00:57.468Z,12.20
2023-04-05T13:03:28.531Z,9.47
2023-04-05T13:05:57.165Z,11.73
2023-04-05T13:08:27.071Z,10.93
2023-04-05T13:10:57.904Z,13.13
2023-04-05T13:13:26.830Z,11.97
2023-04-05T13:15:55.487Z,13.67
2023-04-05T13:18:23.848Z,13.10
2023-04-05T13:20:53.752Z,12.07
2023-04-05T13:23:22.095Z,15.20
2023-04-05T13:25:50.468Z,12.37
2023-04-05T13:28:18.885Z,10.57
2023-04-05T13:30:49.132Z,14.60
2023-04-05T13:33:19.660Z,13.20
2023-04-05T13:35:48.755Z,13.17
2023-04-05T13:38:18.768Z,12.13
2023-04-05T13:40:47.243Z,12.20
2023-04-05T13:43:15.628Z,14.50
2023-04-05T13:45:44.241Z,11.90
2023-04-05T13:48:14.053Z,11.10
2023-04-05T13:50:42.544Z,17.37
2023-04-05T13:53:11.345Z,13.37
2023-04-05T13:55:41.366Z,11.00
2023-04-05T13:58:10.426Z,12.50
2023-04-05T14:00:40.335Z,13.97
2023-04-05T14:03:08.927Z,12.10
2023-04-05T14:05:38.079Z,16.67
2023-04-05T14:08:08.086Z,12.20
2023-04-05T14:10:37.692Z,14.43
2023-04-05T14:13:07.427Z,13.67
2023-04-05T14:15:36.149Z,16.57
2023-04-05T14:18:05.750Z,13.80
2023-04-05T14:20:34.581Z,16.87
2023-04-05T14:23:03.835Z,13.40
2023-04-05T14:25:32.446Z,13.60
2023-04-05T14:28:01.171Z,14.03
2023-04-05T14:30:31.445Z,16.70
2023-04-05T14:33:00.490Z,15.53
2023-04-05T14:35:29.359Z,12.97
2023-04-05T14:37:58.025Z,13.00
2023-04-05T14:40:27.140Z,14.27
2023-04-05T14:42:55.960Z,13.30
2023-04-05T14:45:27.195Z,14.30
2023-04-05T14:47:57.595Z,18.43
2023-04-05T14:50:26.320Z,13.17
2023-04-05T14:52:54.903Z,17.37
2023-04-05T14:55:23.517Z,13.20
2023-04-05T14:57:52.186Z,15.93
2023-04-05T15:00:21.782Z,13.10
2023-04-05T15:02:50.803Z,15.13
2023-04-05T15:05:21.979Z,14.27
2023-04-05T15:07:50.655Z,15.43
2023-04-05T15:10:20.356Z,13.93
2023-04-05T15:12:50.220Z,16.10
2023-04-05T15:15:19.180Z,15.20
2023-04-05T15:17:47.811Z,15.90
2023-04-05T15:20:16.526Z,17.50
2023-04-05T15:22:46.524Z,14.30
2023-04-05T15:25:15.167Z,16.70
2023-04-05T15:27:43.767Z,17.43
2023-04-05T15:30:13.626Z,14.03
2023-04-05T15:32:42.203Z,15.90
2023-04-05T15:35:11.643Z,14.00
2023-04-05T15:37:40.815Z,14.27
2023-04-05T15:40:12.162Z,15.67
2023-04-05T15:42:40.676Z,16.30
2023-04-05T15:45:10.900Z,14.87
2023-04-05T15:47:40.215Z,16.50
2023-04-05T15:50:09.382Z,14.80
2023-04-05T15:52:38.358Z,17.50
2023-04-05T15:55:10.248Z,20.07
2023-04-05T15:57:40.208Z,15.50
2023-04-05T16:00:10.690Z,17.57
2023-04-05T16:02:39.713Z,15.27
2023-04-05T16:05:08.688Z,14.57
2023-04-05T16:07:37.217Z,18.63
2023-04-05T16:10:07.677Z,17.33
2023-04-05T16:12:37.404Z,14.93
2023-04-05T16:15:08.886Z,18.17
2023-04-05T16:17:38.751Z,17.00
2023-04-05T16:20:09.375Z,15.57
2023-04-05T16:22:39.404Z,15.07
2023-04-05T16:25:08.849Z,19.47
2023-04-05T16:27:37.716Z,16.70
2023-04-05T16:30:10.363Z,16.33
2023-04-05T16:32:39.190Z,17.63
2023-04-05T16:35:08.938Z,14.60
2023-04-05T16:37:38.868Z,15.87
2023-04-05T16:40:11.658Z,17.13
2023-04-05T16:42:40.542Z,22.30
2023-04-05T16:45:12.577Z,15.53
2023-04-05T16:47:41.314Z,16.90
2023-04-05T16:50:10.697Z,17.63
2023-04-05T16:52:39.370Z,16.90
2023-04-05T16:55:09.704Z,15.87
2023-04-05T16:57:39.164Z,16.90
2023-04-05T17:00:11.806Z,15.30
2023-04-05T17:02:40.701Z,17.23
2023-04-05T17:05:09.999Z,16.50
2023-04-05T17:07:38.865Z,16.70
2023-04-05T17:10:08.959Z,15.70
2023-04-05T17:12:40.836Z,16.07
2023-04-05T17:15:12.276Z,17.87
2023-04-05T17:17:41.815Z,17.63
2023-04-05T17:20:12.175Z,20.70
2023-04-05T17:22:41.550Z,20.13
2023-04-05T17:25:11.348Z,18.77
2023-04-05T17:27:39.812Z,20.90
2023-04-05T17:30:12.238Z,20.10
2023-04-05T17:32:40.982Z,18.07
2023-04-05T17:35:11.568Z,17.63
2023-04-05T17:37:40.153Z,19.00
2023-04-05T17:40:11.281Z,17.70
2023-04-05T17:42:39.825Z,21.40
2023-04-05T17:45:11.717Z,24.13
2023-04-05T17:47:40.411Z,26.30
2023-04-05T17:50:10.475Z,19.37
2023-04-05T17:52:39.503Z,22.30
2023-04-05T17:55:09.252Z,23.17
2023-04-05T17:57:37.821Z,20.97
2023-04-05T18:00:08.402Z,24.97
2023-04-05T18:02:40.881Z,26.43
2023-04-05T18:05:10.715Z,30.00
2023-04-05T18:07:39.793Z,25.50
2023-04-05T18:10:09.578Z,21.57
2023-04-05T18:12:38.250Z,25.53
2023-04-05T18:15:08.480Z,24.03
2023-04-05T18:17:38.482Z,21.67
2023-04-05T18:20:09.068Z,23.20
2023-04-05T18:22:37.694Z,19.40
2023-04-05T18:25:08.856Z,21.17
2023-04-05T18:27:39.243Z,19.90
2023-04-05T18:30:10.058Z,22.13
2023-04-05T18:32:41.577Z,18.67
2023-04-05T18:35:12.268Z,20.30
2023-04-05T18:37:41.173Z,19.60
2023-04-05T18:40:11.261Z,20.00
2023-04-05T18:42:40.163Z,18.33
2023-04-05T18:45:10.395Z,18.63
2023-04-05T18:47:40.660Z,18.80
2023-04-05T18:50:11.023Z,20.43
2023-04-05T18:52:39.889Z,20.30
2023-04-05T18:55:09.978Z,21.30
2023-04-05T18:57:38.957Z,22.80
2023-04-05T19:00:09.684Z,20.43
2023-04-05T19:02:40.086Z,18.60
2023-04-05T19:05:10.005Z,18.10
2023-04-05T19:07:39.375Z,21.80
2023-04-05T19:10:09.802Z,20.60
2023-04-05T19:12:38.472Z,20.40
2023-04-05T19:15:08.696Z,21.60
2023-04-05T19:17:40.816Z,21.67
2023-04-05T19:20:11.969Z,19.80
2023-04-05T19:22:40.999Z,22.30
2023-04-05T19:25:12.682Z,24.43
2023-04-05T19:27:42.100Z,21.87
2023-04-05T19:30:11.927Z,20.30
2023-04-05T19:32:41.246Z,23.67
2023-04-05T19:35:12.269Z,28.43
2023-04-05T19:37:41.049Z,22.70
2023-04-05T19:40:12.509Z,21.40
2023-04-05T19:42:47.617Z,24.60
2023-04-05T19:45:25.349Z,21.13
2023-04-05T19:47:56.596Z,24.80
2023-04-05T19:50:56.266Z,25.20
2023-04-05T19:53:44.309Z,24.03
2023-04-05T19:56:20.797Z,23.30
2023-04-05T19:58:51.403Z,20.60
2023-04-05T20:01:34.960Z,22.80
2023-04-05T20:04:12.105Z,24.80
2023-04-05T20:06:43.757Z,24.93
2023-04-05T20:09:13.666Z,32.33
2023-04-05T20:11:42.351Z,25.47
2023-04-05T20:14:11.696Z,24.13
2023-04-05T20:16:40.608Z,24.63
2023-04-05T20:19:11.929Z,31.37
2023-04-05T20:21:43.266Z,27.63
2023-04-05T20:24:15.836Z,27.13
2023-04-05T20:26:46.002Z,25.97
2023-04-05T20:29:18.100Z,37.97
2023-04-05T20:31:47.056Z,22.83
2023-04-05T20:34:19.107Z,25.93
2023-04-05T20:36:52.346Z,38.73
2023-04-05T20:39:23.865Z,25.27
2023-04-05T20:41:52.575Z,27.57
2023-04-05T20:44:21.458Z,26.83
2023-04-05T20:46:51.694Z,30.43
2023-04-05T20:49:20.436Z,28.80
2023-04-05T20:51:54.851Z,28.90
2023-04-05T20:54:24.523Z,30.33
2023-04-05T20:56:53.490Z,32.03
2023-04-05T20:59:22.134Z,26.47
2023-04-05T21:01:50.683Z,31.57
2023-04-05T21:04:19.696Z,26.70
2023-04-05T21:06:48.262Z,29.43
2023-04-05T21:09:18.781Z,26.63
2023-04-05T21:11:47.419Z,27.27
2023-04-05T21:14:16.457Z,29.73
2023-04-05T21:16:45.100Z,28.63
2023-04-05T21:19:13.730Z,28.37
2023-04-05T21:21:42.186Z,30.33
2023-04-05T21:24:10.784Z,29.70
2023-04-05T21:26:40.643Z,29.97
2023-04-05T21:29:09.336Z,35.20
2023-04-05T21:31:38.172Z,27.57
2023-04-05T21:34:06.680Z,30.53
2023-04-05T21:36:35.331Z,35.10
2023-04-05T21:39:03.762Z,28.37
2023-04-05T21:41:33.376Z,32.43
2023-04-05T21:44:03.290Z,45.07
2023-04-05T21:46:31.991Z,46.27
2023-04-05T21:49:00.616Z,43.60
2023-04-05T21:51:29.150Z,34.77
2023-04-05T21:53:57.581Z,32.07
2023-04-05T21:56:26.395Z,27.00
2023-04-05T21:58:54.939Z,28.30
2023-04-05T22:01:24.911Z,32.87
2023-04-05T22:03:53.425Z,28.13
2023-04-05T22:06:21.896Z,27.77
2023-04-05T22:08:53.055Z,27.97
2023-04-05T22:11:23.779Z,27.07
2023-04-05T22:13:52.524Z,25.20
2023-04-05T22:16:21.383Z,25.87
2023-04-05T22:18:51.522Z,23.27
2023-04-05T22:21:20.159Z,28.30
2023-04-05T22:23:48.855Z,25.53
2023-04-05T22:26:17.547Z,25.50
2023-04-05T22:28:46.168Z,24.47
2023-04-05T22:31:16.534Z,29.30
2023-04-05T22:33:45.128Z,24.53
2023-04-05T22:36:16.415Z,23.13
2023-04-05T22:38:44.975Z,23.20
2023-04-05T22:41:15.210Z,23.40
2023-04-05T22:43:43.737Z,28.40
2023-04-05T22:46:12.376Z,27.97
2023-04-05T22:48:41.954Z,27.27
2023-04-05T22:51:10.745Z,28.70
2023-04-05T22:53:43.150Z,24.50
2023-04-05T22:56:11.873Z,29.30
2023-04-05T22:58:40.469Z,28.57
2023-04-05T23:01:10.686Z,23.63
2023-04-05T23:03:39.286Z,25.80
2023-04-05T23:06:08.301Z,27.33
2023-04-05T23:08:36.904Z,30.93
2023-04-05T23:11:07.639Z,26.93
2023-04-05T23:13:36.441Z,26.17
2023-04-05T23:16:06.088Z,30.60
2023-04-05T23:18:34.761Z,29.13
2023-04-05T23:21:03.238Z,27.40
2023-04-05T23:23:31.667Z,25.40
2023-04-05T23:26:00.470Z,29.23
2023-04-05T23:28:30.564Z,24.70
2023-04-05T23:30:59.268Z,26.60
2023-04-05T23:33:28.181Z,30.30
2023-04-05T23:35:56.816Z,24.30
2023-04-05T23:38:25.682Z,30.33
2023-04-05T23:40:54.160Z,24.50
2023-04-05T23:43:22.939Z,27.17
2023-04-05T23:45:52.773Z,30.13
2023-04-05T23:48:21.578Z,26.90
2023-04-05T23:50:50.121Z,28.87
2023-04-05T23:53:18.581Z,29.60
2023-04-05T23:55:47.216Z,30.87
2023-04-05T23:58:15.702Z,24.83
